Time;durP1;ratioP1;P1;durP2;ratioP2;P2;SDS_P1;SDS_P2;PMS_P1;PMS_P2;Temp;Humidity;BMP_temperature;BMP_pressure;BME280_temperature;BME280_humidity;BME280_pressure;Samples;Min_cycle;Max_cycle;Signal;HPM_P1;HPM_P2
2021/10/23 00:00:13;;;;;;;;;;;;;;;19.40;68.95;101025.16;5014389;28;1923;-47
2021/10/23 00:02:39;;;;;;;;;;;;;;;19.39;68.41;101036.84;5002331;28;1438;-47
2021/10/23 00:05:06;;;;;;;;;;;;;;;19.37;68.11;101028.09;5005954;28;2087;-46
2021/10/23 00:07:34;;;;;;;;;;;;;;;19.39;68.72;101018.06;5003984;28;1772;-46
2021/10/23 00:10:01;;;;;;;;;;;;;;;19.39;68.51;101027.97;5006878;28;2214;-46
2021/10/23 00:12:28;;;;;;;;;;;;;;;19.40;69.06;101022.47;5010281;28;2107;-46
2021/10/23 00:14:56;;;;;;;;;;;;;;;19.38;68.72;101023.59;5010593;28;1906;-47
2021/10/23 00:17:26;;;;;;;;;;;;;;;19.37;68.09;101030.75;5001307;28;1941;-46
2021/10/23 00:19:53;;;;;;;;;;;;;;;19.38;69.51;101027.13;5005037;28;1473;-47
2021/10/23 00:22:20;;;;;;;;;;;;;;;19.35;68.96;101015.78;5012218;28;1404;-46
2021/10/23 00:24:50;;;;;;;;;;;;;;;19.36;68.81;101013.00;5009502;28;1929;-46
2021/10/23 00:27:19;;;;;;;;;;;;;;;19.35;69.18;101021.16;5004384;28;1845;-46
2021/10/23 00:29:46;;;;;;;;;;;;;;;19.36;69.32;101015.66;5006695;28;1856;-46
2021/10/23 00:32:15;;;;;;;;;;;;;;;19.33;68.27;101018.59;5009746;28;1614;-47
2021/10/23 00:34:43;;;;;;;;;;;;;;;19.35;69.02;101010.44;4998752;28;1906;-46
2021/10/23 00:37:12;;;;;;;;;;;;;;;19.37;69.05;101022.72;5013798;28;1878;-46
2021/10/23 00:39:40;;;;;;;;;;;;;;;19.37;68.14;101017.34;5012272;28;2845;-47
2021/10/23 00:42:08;;;;;;;;;;;;;;;19.35;68.22;101013.13;5011325;28;1577;-47
2021/10/23 00:44:38;;;;;;;;;;;;;;;19.33;68.41;101021.28;5007389;28;2095;-47
2021/10/23 00:47:08;;;;;;;;;;;;;;;19.35;69.31;101013.13;5001446;28;1803;-46
2021/10/23 00:52:20;;;;;;;;;;;;;;;19.33;69.36;101012.41;5000185;28;1851;-46
2021/10/23 00:54:50;;;;;;;;;;;;;;;19.34;69.40;101012.28;5011245;28;1942;-46
2021/10/23 00:57:19;;;;;;;;;;;;;;;19.30;68.96;101002.78;5008489;28;1964;-46
2021/10/23 00:59:48;;;;;;;;;;;;;;;19.33;69.19;101005.19;5008820;28;1978;-47
2021/10/23 01:02:16;;;;;;;;;;;;;;;19.30;68.92;101026.94;5000806;28;1936;-47
2021/10/23 01:04:44;;;;;;;;;;;;;;;19.34;68.61;101009.59;5001464;28;1838;-47
2021/10/23 01:07:11;;;;;;;;;;;;;;;19.34;68.98;101001.53;5013320;28;1670;-46
2021/10/23 01:09:44;;;;;;;;;;;;;;;19.35;68.86;101002.38;5011486;28;2278;-46
2021/10/23 01:12:15;;;;;;;;;;;;;;;19.35;69.03;100992.50;5004608;28;2106;-46
2021/10/23 01:14:50;;;;;;;;;;;;;;;19.32;67.96;100998.16;4999824;28;1902;-47
2021/10/23 01:17:28;;;;;;;;;;;;;;;19.33;68.99;100989.09;5010575;28;1750;-46
2021/10/23 01:19:57;;;;;;;;;;;;;;;19.33;68.43;100994.47;4997778;28;1939;-47
2021/10/23 01:22:30;;;;;;;;;;;;;;;19.32;68.81;100997.28;4996754;28;1063;-46
2021/10/23 01:24:59;;;;;;;;;;;;;;;19.28;68.26;100991.34;5001340;28;2226;-46
2021/10/23 01:27:26;;;;;;;;;;;;;;;19.27;67.81;100985.13;5003202;28;1784;-46
2021/10/23 01:29:55;;;;;;;;;;;;;;;19.29;69.11;100982.31;5004411;28;1562;-46
2021/10/23 01:32:24;;;;;;;;;;;;;;;19.29;68.51;100993.03;5006883;28;1825;-47
2021/10/23 01:34:59;;;;;;;;;;;;;;;19.31;69.24;100995.59;5001582;28;1977;-46
2021/10/23 01:37:35;;;;;;;;;;;;;;;19.30;68.61;100992.06;5010940;28;1611;-46
2021/10/23 01:40:03;;;;;;;;;;;;;;;19.27;68.12;100989.63;5004612;28;1777;-46
2021/10/23 01:42:32;;;;;;;;;;;;;;;19.27;68.90;101003.03;4999096;28;1754;-46
2021/10/23 01:45:02;;;;;;;;;;;;;;;19.27;68.94;101011.09;4998222;28;1812;-47
2021/10/23 01:47:29;;;;;;;;;;;;;;;19.28;68.20;101019.00;5004040;28;1875;-47
2021/10/23 01:49:57;;;;;;;;;;;;;;;19.30;67.83;101015.31;4996580;28;1560;-47
2021/10/23 01:52:24;;;;;;;;;;;;;;;19.30;69.10;101018.88;5013899;28;1002;-46
2021/10/23 01:54:55;;;;;;;;;;;;;;;19.27;68.61;101011.09;5009230;28;1903;-47
2021/10/23 01:57:25;;;;;;;;;;;;;;;19.28;67.89;101012.81;5006926;28;2167;-46
2021/10/23 01:59:52;;;;;;;;;;;;;;;19.26;67.76;101006.72;4994792;28;2284;-46
2021/10/23 02:02:21;;;;;;;;;;;;;;;19.25;68.00;101013.03;5119998;22;3632;-48
2021/10/23 02:04:56;;;;;;;;;;;;;;;19.28;68.06;101012.81;5029872;28;2124;-48
2021/10/23 02:07:25;;;;;;;;;;;;;;;19.12;68.38;100970.38;5029656;28;1617;-48
2021/10/23 02:09:57;;;;;;;;;;;;;;;19.27;68.71;100995.84;5026102;28;1798;-48
2021/10/23 02:12:25;;;;;;;;;;;;;;;19.30;68.34;101004.59;5024628;28;2168;-48
2021/10/23 02:14:52;;;;;;;;;;;;;;;19.29;67.49;101027.88;5025479;28;1902;-48
2021/10/23 02:17:22;;;;;;;;;;;;;;;19.28;68.63;101012.81;5030090;28;1645;-48
2021/10/23 02:19:56;;;;;;;;;;;;;;;19.30;68.75;101009.97;5026625;28;1350;-47
2021/10/23 02:22:25;;;;;;;;;;;;;;;19.26;68.53;101018.28;5032423;28;2035;-49
2021/10/23 02:24:57;;;;;;;;;;;;;;;19.37;67.44;101009.31;5030237;28;1743;-48
2021/10/23 02:27:27;;;;;;;;;;;;;;;19.65;67.02;101014.97;5024800;28;1906;-48
2021/10/23 02:29:55;;;;;;;;;;;;;;;19.68;67.07;101023.59;5027658;28;2125;-48
2021/10/23 02:32:23;;;;;;;;;;;;;;;19.62;67.86;101034.03;5029250;28;1984;-48
2021/10/23 02:34:52;;;;;;;;;;;;;;;19.57;67.70;101025.53;5030729;28;1902;-48
2021/10/23 02:37:22;;;;;;;;;;;;;;;19.59;67.61;101045.84;5028046;28;1502;-47
2021/10/23 02:39:52;;;;;;;;;;;;;;;19.72;67.96;101043.00;5029872;28;1925;-48
2021/10/23 02:42:24;;;;;;;;;;;;;;;19.77;67.02;101042.59;5025260;28;1707;-48
2021/10/23 02:44:54;;;;;;;;;;;;;;;19.64;68.15;101029.38;5030542;28;2064;-47
2021/10/23 02:47:21;;;;;;;;;;;;;;;19.57;68.64;101053.19;5032005;28;2359;-47
2021/10/23 02:49:49;;;;;;;;;;;;;;;19.65;67.75;101049.84;5023163;28;1760;-48
2021/10/23 02:52:15;;;;;;;;;;;;;;;19.75;67.00;101048.09;5033805;28;1661;-47
2021/10/23 02:54:42;;;;;;;;;;;;;;;19.68;67.38;101053.13;5029285;28;1902;-47
2021/10/23 02:57:10;;;;;;;;;;;;;;;19.63;67.00;101049.13;5026190;28;1978;-49
2021/10/23 02:59:43;;;;;;;;;;;;;;;19.59;67.40;101042.31;5024446;28;1663;-48
2021/10/23 03:02:11;;;;;;;;;;;;;;;19.89;67.04;101043.34;5028417;28;1768;-48
2021/10/23 03:04:37;;;;;;;;;;;;;;;19.86;66.47;101050.69;5025081;28;1899;-48
2021/10/23 03:07:04;;;;;;;;;;;;;;;19.75;67.92;101041.88;5025107;28;1697;-48
2021/10/23 03:09:34;;;;;;;;;;;;;;;19.63;67.12;101049.13;5029632;28;1943;-47
2021/10/23 03:12:01;;;;;;;;;;;;;;;19.68;66.66;101052.28;5024508;28;1460;-47
2021/10/23 03:14:29;;;;;;;;;;;;;;;19.89;67.03;101044.19;5025035;28;1906;-48
2021/10/23 03:17:02;;;;;;;;;;;;;;;19.78;66.82;101053.22;5029546;28;1701;-48
2021/10/23 03:19:31;;;;;;;;;;;;;;;19.72;68.03;101039.47;5023980;28;1928;-48
2021/10/23 03:22:01;;;;;;;;;;;;;;;19.65;67.03;101057.91;5030151;28;1058;-47
2021/10/23 03:24:31;;;;;;;;;;;;;;;19.75;66.52;101053.47;5033056;28;1712;-48
2021/10/23 03:27:01;;;;;;;;;;;;;;;19.88;66.76;101047.03;5029344;28;2228;-48
2021/10/23 03:29:28;;;;;;;;;;;;;;;19.77;66.64;101061.38;5025142;28;1766;-48
2021/10/23 03:34:44;;;;;;;;;;;;;;;19.67;67.55;101063.97;5028498;28;1902;-47
2021/10/23 03:37:12;;;;;;;;;;;;;;;19.92;66.09;101053.84;5033542;28;1946;-47
2021/10/23 03:39:43;;;;;;;;;;;;;;;19.90;66.57;101066.53;5028665;28;1895;-48
2021/10/23 03:42:10;;;;;;;;;;;;;;;19.81;67.51;101058.28;5027038;28;1486;-50
2021/10/23 03:44:40;;;;;;;;;;;;;;;19.70;66.77;101066.41;5031780;28;1708;-48
2021/10/23 03:47:16;;;;;;;;;;;;;;;19.84;67.19;101074.13;5026279;28;1919;-48
2021/10/23 03:49:47;;;;;;;;;;;;;;;19.92;65.84;101048.47;5033739;28;1703;-48
2021/10/23 03:52:15;;;;;;;;;;;;;;;19.82;66.09;101054.63;5021075;28;1687;-48
2021/10/23 03:54:50;;;;;;;;;;;;;;;19.76;66.76;101049.81;5021880;28;1985;-47
2021/10/23 03:57:18;;;;;;;;;;;;;;;19.66;66.84;101056.94;5026543;28;1530;-47
2021/10/23 03:59:48;;;;;;;;;;;;;;;19.56;67.10;101051.50;5026819;28;1606;-48
2021/10/23 04:02:20;;;;;;;;;;;;;;;19.54;67.74;101044.56;5024985;28;1571;-48
2021/10/23 04:04:50;;;;;;;;;;;;;;;19.48;67.74;101044.09;5023716;28;1829;-48
2021/10/23 04:07:18;;;;;;;;;;;;;;;19.43;66.75;101059.72;5024705;28;987;-47
2021/10/23 04:09:46;;;;;;;;;;;;;;;19.42;67.02;101041.97;5028416;28;1976;-48
2021/10/23 04:12:20;;;;;;;;;;;;;;;19.45;66.94;101052.41;5024759;28;1916;-48
2021/10/23 04:14:50;;;;;;;;;;;;;;;19.42;67.39;101058.06;5020335;28;1902;-48
2021/10/23 04:17:20;;;;;;;;;;;;;;;19.38;68.09;101061.13;5028691;28;2383;-48
2021/10/23 04:20:01;;;;;;;;;;;;;;;19.41;67.33;101075.09;5025997;28;1939;-48
2021/10/23 04:22:33;;;;;;;;;;;;;;;19.36;68.33;101085.41;5033019;28;1145;-47
2021/10/23 04:25:01;;;;;;;;;;;;;;;19.35;68.05;101078.31;5022868;28;2125;-48
2021/10/23 04:27:27;;;;;;;;;;;;;;;19.35;68.46;101085.53;5028678;28;1604;-47
2021/10/23 04:29:55;;;;;;;;;;;;;;;19.29;67.35;101068.09;5027141;28;1848;-48
2021/10/23 04:32:23;;;;;;;;;;;;;;;19.30;67.50;101069.81;5023644;28;2064;-48
2021/10/23 04:34:50;;;;;;;;;;;;;;;19.32;67.64;101078.59;5027339;28;1906;-48
2021/10/23 04:37:20;;;;;;;;;;;;;;;19.27;68.64;101076.28;5033394;28;1040;-47
2021/10/23 04:39:52;;;;;;;;;;;;;;;19.25;68.74;101069.34;5027825;28;2255;-48
2021/10/23 04:42:22;;;;;;;;;;;;;;;19.26;67.64;101085.31;5032086;28;1592;-48
2021/10/23 04:44:59;;;;;;;;;;;;;;;19.27;68.83;101078.97;5026938;28;2268;-48
2021/10/23 04:47:29;;;;;;;;;;;;;;;19.23;68.09;101084.72;5025849;28;1630;-48
2021/10/23 04:50:04;;;;;;;;;;;;;;;19.26;67.75;101087.16;5026338;28;1586;-48
2021/10/23 04:52:31;;;;;;;;;;;;;;;19.23;68.57;101084.72;5026826;28;1113;-48
2021/10/23 04:55:04;;;;;;;;;;;;;;;19.24;68.74;101083.75;5026641;28;2004;-48
2021/10/23 04:57:31;;;;;;;;;;;;;;;19.23;68.28;101095.44;5024925;28;2677;-48
2021/10/23 05:00:01;;;;;;;;;;;;;;;19.23;69.14;101107.00;5020213;28;1671;-48
2021/10/23 05:02:28;;;;;;;;;;;;;;;19.28;68.22;101115.53;5024250;28;1834;-47
2021/10/23 05:04:57;;;;;;;;;;;;;;;19.29;68.05;101116.38;5024830;28;2005;-48
2021/10/23 05:07:23;;;;;;;;;;;;;;;19.25;68.12;101120.28;5017789;28;1590;-48
2021/10/23 05:09:50;;;;;;;;;;;;;;;19.29;68.40;101100.28;5028458;28;1715;-47
2021/10/23 05:12:34;;;;;;;;;;;;;;;19.30;69.99;101101.13;5027031;28;1648;-48
2021/10/23 05:15:07;;;;;;;;;;;;;;;19.24;70.40;101099.84;5021899;28;1976;-47
2021/10/23 05:17:33;;;;;;;;;;;;;;;19.26;71.25;101100.56;5031506;28;1580;-47
2021/10/23 05:20:00;;;;;;;;;;;;;;;19.26;70.79;101117.50;5030789;28;1644;-48
2021/10/23 05:22:27;;;;;;;;;;;;;;;19.30;70.18;101130.63;5032521;28;1007;-46
2021/10/23 05:24:57;;;;;;;;;;;;;;;19.31;70.34;101108.22;5026941;28;1770;-48
2021/10/23 05:27:27;;;;;;;;;;;;;;;19.13;70.54;101132.91;5025459;28;1491;-48
2021/10/23 05:29:57;;;;;;;;;;;;;;;19.04;70.97;101139.03;5027699;28;1612;-48
2021/10/23 05:32:29;;;;;;;;;;;;;;;19.20;70.73;101154.66;5025209;28;1558;-47
2021/10/23 05:34:59;;;;;;;;;;;;;;;19.14;70.78;101141.78;5028110;28;1977;-48
2021/10/23 05:37:29;;;;;;;;;;;;;;;18.91;69.86;101149.91;5032954;28;1012;-48
2021/10/23 05:39:58;;;;;;;;;;;;;;;18.80;68.78;101149.91;5028890;28;2135;-48
2021/10/23 05:42:28;;;;;;;;;;;;;;;18.74;68.84;101159.28;5025551;28;1549;-48
2021/10/23 05:44:58;;;;;;;;;;;;;;;18.72;69.29;101157.69;5023895;28;1794;-48
2021/10/23 05:47:39;;;;;;;;;;;;;;;18.77;69.30;101179.63;5031799;28;1542;-48
2021/10/23 05:50:07;;;;;;;;;;;;;;;18.77;69.12;101184.97;5029184;28;1745;-48
2021/10/23 05:52:36;;;;;;;;;;;;;;;18.73;68.50;101194.25;5032770;28;1741;-48
2021/10/23 05:55:04;;;;;;;;;;;;;;;18.69;69.41;101173.03;5031105;28;1902;-48
2021/10/23 05:57:34;;;;;;;;;;;;;;;18.73;69.14;101187.03;5034941;28;1550;-48
2021/10/23 06:00:06;;;;;;;;;;;;;;;18.92;69.77;101194.50;5035558;28;1635;-48
2021/10/23 06:02:39;;;;;;;;;;;;;;;19.04;70.28;101193.50;5029883;28;1767;-48
2021/10/23 06:05:10;;;;;;;;;;;;;;;19.13;69.63;101197.22;5033663;28;2336;-48
2021/10/23 06:07:38;;;;;;;;;;;;;;;19.15;69.62;101213.19;5030294;28;1074;-48
2021/10/23 06:10:12;;;;;;;;;;;;;;;19.18;69.64;101194.16;5033108;28;2136;-48
2021/10/23 06:12:40;;;;;;;;;;;;;;;19.16;70.28;101198.81;5025218;28;2572;-48
2021/10/23 06:15:10;;;;;;;;;;;;;;;18.97;60.37;101202.16;5024972;28;1911;-48
2021/10/23 06:17:43;;;;;;;;;;;;;;;19.02;64.17;101206.16;5028836;28;2011;-48
2021/10/23 06:20:18;;;;;;;;;;;;;;;19.10;65.94;101212.72;5032156;28;1942;-47
2021/10/23 06:22:59;;;;;;;;;;;;;;;19.15;68.03;101210.50;5025311;28;998;-47
2021/10/23 06:25:28;;;;;;;;;;;;;;;19.17;69.11;101213.91;5030905;28;2593;-48
2021/10/23 06:27:57;;;;;;;;;;;;;;;19.22;68.03;101206.38;5031984;28;1794;-47
2021/10/23 06:30:34;;;;;;;;;;;;;;;19.25;69.44;101219.50;5029583;28;1837;-47
2021/10/23 06:33:07;;;;;;;;;;;;;;;19.22;68.17;101212.56;5025262;28;1814;-47
2021/10/23 06:35:33;;;;;;;;;;;;;;;19.26;68.99;101213.19;5026148;28;2937;-47
2021/10/23 06:38:00;;;;;;;;;;;;;;;19.23;69.28;101214.25;5030203;28;1661;-48
2021/10/23 06:40:27;;;;;;;;;;;;;;;19.26;70.13;101221.22;5029308;28;1420;-47
2021/10/23 06:42:55;;;;;;;;;;;;;;;19.31;69.08;101232.41;5027780;28;2137;-47
2021/10/23 06:45:22;;;;;;;;;;;;;;;19.31;69.46;101237.75;5017572;28;1619;-47
2021/10/23 06:47:51;;;;;;;;;;;;;;;19.34;70.02;101245.56;5022798;28;1977;-48
2021/10/23 06:50:27;;;;;;;;;;;;;;;19.32;70.90;101243.97;5020994;28;1986;-48
2021/10/23 06:52:56;;;;;;;;;;;;;;;19.39;70.51;101251.38;5020732;28;1197;-47
2021/10/23 06:55:25;;;;;;;;;;;;;;;19.35;70.74;101262.50;5028812;28;2070;-48
2021/10/23 06:57:53;;;;;;;;;;;;;;;19.43;70.61;101252.84;5033566;28;1869;-47
2021/10/23 07:00:22;;;;;;;;;;;;;;;19.44;69.19;101257.25;5024410;28;1947;-47
2021/10/23 07:02:53;;;;;;;;;;;;;;;19.43;69.56;101252.84;5028401;28;1803;-61
2021/10/23 07:05:23;;;;;;;;;;;;;;;19.41;70.89;101245.91;5023951;28;1583;-62
2021/10/23 07:07:59;;;;;;;;;;;;;;;19.41;70.81;101243.22;5023491;28;1354;-61
2021/10/23 07:10:28;;;;;;;;;;;;;;;19.52;70.97;101269.16;5021606;28;1722;-62
2021/10/23 07:12:58;;;;;;;;;;;;;;;19.48;69.13;101250.66;5023803;28;1551;-61
2021/10/23 07:18:06;;;;;;;;;;;;;;;19.56;69.65;101268.78;5023521;28;2368;-61
2021/10/23 07:20:41;;;;;;;;;;;;;;;19.54;69.95;101267.22;5022204;28;1506;-61
2021/10/23 07:23:08;;;;;;;;;;;;;;;19.48;69.30;101276.63;5021528;28;1696;-63
2021/10/23 07:25:34;;;;;;;;;;;;;;;19.47;69.56;101282.94;5022945;28;1361;-61
2021/10/23 07:28:01;;;;;;;;;;;;;;;19.44;69.81;101286.75;5020685;28;1774;-60
2021/10/23 07:30:28;;;;;;;;;;;;;;;19.46;70.58;101273.22;5030725;28;1747;-61
2021/10/23 07:32:55;;;;;;;;;;;;;;;19.45;69.48;101280.38;5028820;28;1637;-60
2021/10/23 07:35:25;;;;;;;;;;;;;;;19.55;70.95;101274.28;5030193;28;1694;-61
2021/10/23 07:37:55;;;;;;;;;;;;;;;19.70;69.82;101278.38;4977232;28;11552;-61
2021/10/23 07:40:25;;;;;;;;;;;;;;;19.60;70.25;101280.97;5033726;28;1695;-62
2021/10/23 07:42:55;;;;;;;;;;;;;;;19.55;70.59;101276.97;5024582;28;1654;-61
2021/10/23 07:45:22;;;;;;;;;;;;;;;19.52;70.64;101277.19;5029601;28;2118;-62
2021/10/23 07:47:51;;;;;;;;;;;;;;;19.50;70.75;101276.47;5025012;28;1795;-62
2021/10/23 07:50:17;;;;;;;;;;;;;;;19.49;69.81;101278.31;5026805;28;1548;-61
2021/10/23 07:52:46;;;;;;;;;;;;;;;19.60;71.21;101285.50;5031421;28;2028;-51
2021/10/23 07:55:21;;;;;;;;;;;;;;;19.61;70.88;101293.38;5028206;28;1439;-51
2021/10/23 07:57:48;;;;;;;;;;;;;;;19.68;70.85;101285.72;5022508;28;1914;-52
2021/10/23 08:00:17;;;;;;;;;;;;;;;19.68;70.27;101289.22;5033143;28;1800;-51
2021/10/23 08:02:59;;;;;;;;;;;;;;;19.74;70.07;101274.50;5031462;28;1797;-49
2021/10/23 08:05:40;;;;;;;;;;;;;;;19.79;70.40;101274.94;5027513;28;1605;-50
2021/10/23 08:08:10;;;;;;;;;;;;;;;19.88;69.96;101289.44;5032300;28;1845;-50
2021/10/23 08:10:38;;;;;;;;;;;;;;;20.01;70.29;101292.78;5031153;28;1605;-49
2021/10/23 08:13:09;;;;;;;;;;;;;;;20.09;69.16;101284.06;5025415;28;1884;-50
2021/10/23 08:15:37;;;;;;;;;;;;;;;20.01;69.41;101278.50;5030646;28;1962;-51
2021/10/23 08:18:04;;;;;;;;;;;;;;;20.04;70.85;101299.75;5031054;28;1759;-49
2021/10/23 08:20:35;;;;;;;;;;;;;;;20.00;70.81;101287.56;5029099;28;1717;-50
2021/10/23 08:23:05;;;;;;;;;;;;;;;19.88;69.47;101294.81;5033005;28;1819;-51
2021/10/23 08:25:35;;;;;;;;;;;;;;;19.80;69.83;101287.41;5022839;28;1095;-50
2021/10/23 08:28:07;;;;;;;;;;;;;;;19.92;70.57;101290.03;5027438;28;1958;-50
2021/10/23 08:30:37;;;;;;;;;;;;;;;19.97;70.68;101288.66;5027564;28;1632;-50
2021/10/23 08:33:04;;;;;;;;;;;;;;;19.92;71.46;101287.34;5031367;28;1971;-50
2021/10/23 08:35:33;;;;;;;;;;;;;;;20.00;69.94;101276.81;5023513;28;1609;-52
2021/10/23 08:37:59;;;;;;;;;;;;;;;19.97;71.00;101288.66;5033948;28;1902;-51
2021/10/23 08:40:28;;;;;;;;;;;;;;;19.98;70.32;101289.53;5030720;28;1625;-51
2021/10/23 08:42:58;;;;;;;;;;;;;;;19.96;70.88;101286.97;5032784;28;1834;-50
2021/10/23 08:45:38;;;;;;;;;;;;;;;20.13;71.33;101296.25;5026174;28;1705;-49
2021/10/23 08:48:06;;;;;;;;;;;;;;;20.16;70.85;101290.63;4984190;28;12444;-50
2021/10/23 08:50:34;;;;;;;;;;;;;;;20.10;70.32;101293.84;4987844;28;10819;-50
2021/10/23 08:53:02;;;;;;;;;;;;;;;20.14;70.84;101303.34;5021891;28;2314;-50
2021/10/23 08:55:30;;;;;;;;;;;;;;;20.22;71.17;101314.28;5032482;28;1403;-50
2021/10/23 08:58:00;;;;;;;;;;;;;;;20.13;70.42;101314.22;5024172;28;1969;-50
2021/10/23 09:00:30;;;;;;;;;;;;;;;20.04;69.97;101305.94;5028509;28;1543;-50
2021/10/23 09:02:57;;;;;;;;;;;;;;;20.00;67.37;101303.66;5028654;28;2126;-50
2021/10/23 09:05:26;;;;;;;;;;;;;;;19.97;68.04;101298.53;5023243;28;2018;-50
2021/10/23 09:07:53;;;;;;;;;;;;;;;19.97;67.01;101310.13;5024511;28;1734;-49
2021/10/23 09:10:26;;;;;;;;;;;;;;;19.99;66.59;101313.53;5032536;28;1741;-50
2021/10/23 09:13:11;;;;;;;;;;;;;;;19.95;66.32;101301.34;5021250;28;2117;-50
2021/10/23 09:15:46;;;;;;;;;;;;;;;19.95;66.27;101316.59;5027075;28;2082;-50
2021/10/23 09:18:13;;;;;;;;;;;;;;;19.97;65.28;101320.00;5031389;28;1963;-50
2021/10/23 09:20:51;;;;;;;;;;;;;;;19.93;64.78;101313.19;5032578;28;2005;-50
2021/10/23 09:23:21;;;;;;;;;;;;;;;19.88;65.45;101312.75;5019866;28;1699;-49
2021/10/23 09:25:49;;;;;;;;;;;;;;;19.88;66.42;101310.91;5032061;28;1773;-50
2021/10/23 09:28:16;;;;;;;;;;;;;;;19.92;65.71;101311.50;5029671;28;1754;-50
2021/10/23 09:30:49;;;;;;;;;;;;;;;19.91;65.94;101321.38;5028012;28;1598;-49
2021/10/23 09:33:23;;;;;;;;;;;;;;;19.93;65.44;101318.56;5031381;28;1452;-49
2021/10/23 09:35:55;;;;;;;;;;;;;;;19.88;66.59;101320.81;5022086;28;1937;-50
2021/10/23 09:38:26;;;;;;;;;;;;;;;19.82;65.70;101312.28;5031872;28;1910;-50
2021/10/23 09:41:02;;;;;;;;;;;;;;;19.77;65.40;101314.47;5023512;28;1604;-50
2021/10/23 09:43:32;;;;;;;;;;;;;;;19.71;65.10;101314.97;5025389;28;1982;-50
2021/10/23 09:46:15;;;;;;;;;;;;;;;19.68;65.19;101307.16;5028942;28;1654;-49
2021/10/23 09:48:50;;;;;;;;;;;;;;;19.66;65.04;101311.81;5017671;28;1682;-51
2021/10/23 09:51:19;;;;;;;;;;;;;;;19.68;64.71;101293.75;5023865;28;1060;-50
2021/10/23 09:53:48;;;;;;;;;;;;;;;19.80;65.59;101314.22;5030088;28;1865;-50
2021/10/23 09:59:17;;;;;;;;;;;;;;;19.79;65.80;101285.69;5024715;28;1772;-50
2021/10/23 10:01:52;;;;;;;;;;;;;;;19.80;64.95;101313.38;5028050;28;1754;-50
2021/10/23 10:04:19;;;;;;;;;;;;;;;19.91;66.29;101320.53;5032541;28;1974;-49
2021/10/23 10:06:47;;;;;;;;;;;;;;;19.91;65.93;101304.44;5023958;28;1068;-50
2021/10/23 10:09:14;;;;;;;;;;;;;;;19.90;65.90;101310.78;4987075;28;10824;-50
2021/10/23 10:11:43;;;;;;;;;;;;;;;19.86;66.22;101307.50;5024144;28;1750;-50
2021/10/23 10:14:10;;;;;;;;;;;;;;;19.88;67.24;101321.66;5031149;28;1893;-50
2021/10/23 10:16:41;;;;;;;;;;;;;;;19.90;66.59;101318.84;5025142;28;1973;-50
2021/10/23 10:19:14;;;;;;;;;;;;;;;19.82;67.03;101314.97;5028368;28;1259;-50
2021/10/23 10:21:50;;;;;;;;;;;;;;;19.77;65.63;101319.84;5021427;28;1763;-50
2021/10/23 10:24:23;;;;;;;;;;;;;;;19.70;64.75;101307.91;5027274;28;1750;-50
2021/10/23 10:27:22;;;;;;;;;;;;;;;19.67;65.29;101302.78;5032721;28;1744;-51
2021/10/23 10:30:00;;;;;;;;;;;;;;;19.69;66.67;101295.44;5029302;28;1865;-50
2021/10/23 10:32:42;;;;;;;;;;;;;;;19.70;65.13;101291.78;5027511;28;1670;-50
2021/10/23 10:35:30;;;;;;;;;;;;;;;19.77;65.26;101292.16;5028082;28;1534;-50
2021/10/23 10:46:09;;;;;;;;;;;;;;;19.80;66.44;101284.72;5031594;28;2250;-50
2021/10/23 10:48:40;;;;;;;;;;;;;;;19.84;66.51;101298.72;5022216;28;2891;-50
2021/10/23 10:51:31;;;;;;;;;;;;;;;19.88;65.73;101291.28;5029207;28;1433;-59
2021/10/23 10:54:05;;;;;;;;;;;;;;;20.02;66.63;101290.97;5017223;28;1574;-59
2021/10/23 10:56:45;;;;;;;;;;;;;;;19.96;65.90;101295.00;5017855;28;1975;-58
2021/10/23 10:59:12;;;;;;;;;;;;;;;19.84;66.15;101298.72;5023509;28;1541;-58
2021/10/23 11:01:38;;;;;;;;;;;;;;;19.82;67.42;101303.38;5025284;28;1753;-59
2021/10/23 11:04:10;;;;;;;;;;;;;;;19.98;66.78;101300.25;5033443;28;1549;-45
2021/10/23 11:06:41;;;;;;;;;;;;;;;19.94;67.22;101285.41;5033208;28;1881;-45
2021/10/23 11:09:30;;;;;;;;;;;;;;;19.95;67.27;101290.59;5024708;28;1688;-46
2021/10/23 11:12:28;;;;;;;;;;;;;;;19.88;68.48;101285.91;5019025;28;1756;-45
2021/10/23 11:14:56;;;;;;;;;;;;;;;19.81;67.59;101286.41;5022718;28;1499;-45
2021/10/23 11:17:24;;;;;;;;;;;;;;;19.79;67.76;101291.03;5022203;28;1973;-45
2021/10/23 11:19:55;;;;;;;;;;;;;;;19.76;69.00;101275.22;5030758;28;1545;-46
2021/10/23 11:22:31;;;;;;;;;;;;;;;19.77;68.68;101281.44;5025567;28;1498;-46
2021/10/23 11:25:04;;;;;;;;;;;;;;;19.73;68.93;101278.13;5021227;28;1569;-46
2021/10/23 11:27:39;;;;;;;;;;;;;;;19.81;68.01;101274.81;5031327;28;1637;-46
2021/10/23 11:30:37;;;;;;;;;;;;;;;19.83;68.65;101262.97;5025967;28;1471;-46
2021/10/23 11:33:04;;;;;;;;;;;;;;;19.88;68.90;101281.38;5031590;28;2280;-46
2021/10/23 11:35:33;;;;;;;;;;;;;;;19.87;67.54;101268.94;5027365;28;1579;-45
2021/10/23 11:38:01;;;;;;;;;;;;;;;19.89;68.69;101276.88;5032126;28;1906;-45
2021/10/23 11:40:27;;;;;;;;;;;;;;;19.89;67.54;101268.81;5035250;28;1575;-45
2021/10/23 11:42:55;;;;;;;;;;;;;;;19.89;67.73;101284.91;5033060;28;1670;-45
2021/10/23 11:45:23;;;;;;;;;;;;;;;19.90;68.97;101265.16;5032741;28;1725;-45
2021/10/23 11:47:53;;;;;;;;;;;;;;;19.91;68.42;101256.94;5034040;28;1744;-46
2021/10/23 11:50:27;;;;;;;;;;;;;;;19.96;68.19;101272.69;5029028;28;1810;-46
2021/10/23 11:52:57;;;;;;;;;;;;;;;19.95;68.91;101262.94;5033968;28;1886;-46
2021/10/23 11:55:41;;;;;;;;;;;;;;;20.04;68.69;101267.53;5032424;28;1747;-45
2021/10/23 11:58:13;;;;;;;;;;;;;;;20.08;69.37;101263.59;5034106;28;1906;-45
2021/10/23 12:00:42;;;;;;;;;;;;;;;20.02;68.39;101269.50;5033033;28;1714;-46
2021/10/23 12:03:10;;;;;;;;;;;;;;;19.96;68.76;101270.00;5031353;28;1950;-46
2021/10/23 12:05:44;;;;;;;;;;;;;;;19.82;68.33;101268.50;5026117;28;1620;-46
2021/10/23 12:08:29;;;;;;;;;;;;;;;19.79;69.34;101274.94;5016177;28;1998;-45
2021/10/23 12:11:16;;;;;;;;;;;;;;;19.75;69.10;101273.50;5021040;28;1616;-45
2021/10/23 12:14:08;;;;;;;;;;;;;;;19.76;69.18;101277.06;5021670;28;2011;-45
2021/10/23 12:16:48;;;;;;;;;;;;;;;19.75;69.29;101270.81;5027436;28;1932;-46
2021/10/23 12:19:16;;;;;;;;;;;;;;;19.73;69.80;101270.09;5034181;28;1496;-45
2021/10/23 12:21:45;;;;;;;;;;;;;;;19.72;68.92;101276.44;5025248;28;1545;-45
2021/10/23 12:24:24;;;;;;;;;;;;;;;19.67;68.56;101275.94;5019068;28;1851;-46
2021/10/23 12:27:00;;;;;;;;;;;;;;;19.68;69.38;101283.88;5029601;28;1771;-45
2021/10/23 12:29:34;;;;;;;;;;;;;;;19.68;68.74;101269.59;5032889;28;1581;-46
2021/10/23 12:32:07;;;;;;;;;;;;;;;19.75;69.36;101268.13;5030195;28;1911;-46
2021/10/23 12:34:55;;;;;;;;;;;;;;;19.83;68.95;101281.75;5027663;28;1769;-45
2021/10/23 12:37:32;;;;;;;;;;;;;;;19.75;68.33;101294.97;5027401;28;1914;-45
2021/10/23 12:40:02;;;;;;;;;;;;;;;19.72;69.11;101311.34;5021469;28;2028;-45
2021/10/23 12:42:31;;;;;;;;;;;;;;;19.71;68.93;101290.84;5022865;28;1803;-45
2021/10/23 12:45:01;;;;;;;;;;;;;;;19.82;68.91;101300.69;5031235;28;1756;-46
2021/10/23 12:47:30;;;;;;;;;;;;;;;19.92;69.37;101290.03;5032980;28;2238;-45
2021/10/23 12:49:57;;;;;;;;;;;;;;;19.86;68.56;101284.19;5031397;28;1621;-45
2021/10/23 12:52:24;;;;;;;;;;;;;;;19.84;71.08;101277.25;5033536;28;1941;-45
2021/10/23 12:54:52;;;;;;;;;;;;;;;19.88;70.57;101277.88;5020122;28;1467;-45
2021/10/23 12:57:22;;;;;;;;;;;;;;;19.91;70.60;101285.63;5022285;28;1906;-45
2021/10/23 12:59:51;;;;;;;;;;;;;;;19.92;71.71;101282.00;5026861;28;2050;-45
2021/10/23 13:02:21;;;;;;;;;;;;;;;19.98;70.78;101285.00;5032135;28;1748;-44
2021/10/23 13:04:54;;;;;;;;;;;;;;;19.95;71.15;101284.41;5032588;28;1451;-44
2021/10/23 13:07:22;;;;;;;;;;;;;;;19.89;71.12;101268.81;5033811;28;1857;-45
2021/10/23 13:09:50;;;;;;;;;;;;;;;19.86;71.72;101292.25;5032635;28;1706;-45
2021/10/23 13:12:19;;;;;;;;;;;;;;;19.83;71.32;101292.50;5032755;28;1613;-44
2021/10/23 13:14:48;;;;;;;;;;;;;;;19.86;71.69;101277.97;5028812;28;1956;-44
2021/10/23 13:17:15;;;;;;;;;;;;;;;19.87;71.15;101293.09;5030932;28;1971;-45
2021/10/23 13:19:41;;;;;;;;;;;;;;;19.85;72.53;101300.41;5029803;28;1729;-44
2021/10/23 13:22:09;;;;;;;;;;;;;;;19.90;71.55;101302.75;5033136;28;1454;-44
2021/10/23 13:24:36;;;;;;;;;;;;;;;19.85;72.02;101311.16;5028226;28;1683;-45